Time;durP1;ratioP1;P1;durP2;ratioP2;P2;SDS_P1;SDS_P2;PMS_P1;PMS_P2;Temp;Humidity;BMP_temperature;BMP_pressure;BME280_temperature;BME280_humidity;BME280_pressure;Samples;Min_cycle;Max_cycle;Signal;HPM_P1;HPM_P2
2023/06/30 00:00:46;;;;;;;2.83;2.10;;;;;;;;;;5032137;28;20056;-61
2023/06/30 00:03:11;;;;;;;4.07;2.38;;;;;;;;;;5032092;28;20838;-61
2023/06/30 00:05:36;;;;;;;4.43;2.30;;;;;;;;;;5032113;28;20125;-61
2023/06/30 00:08:03;;;;;;;3.30;2.05;;;;;;;;;;5031448;28;20042;-62
2023/06/30 00:10:28;;;;;;;2.95;2.13;;;;;;;;;;5031876;28;20033;-62
2023/06/30 00:12:54;;;;;;;2.20;1.95;;;;;;;;;;5031964;28;20032;-62
2023/06/30 00:15:19;;;;;;;3.20;2.00;;;;;;;;;;5031347;28;20029;-61
2023/06/30 00:17:47;;;;;;;2.70;1.80;;;;;;;;;;5031812;28;20121;-61
2023/06/30 00:20:12;;;;;;;3.00;1.90;;;;;;;;;;5030812;28;20068;-62
2023/06/30 00:22:38;;;;;;;2.47;1.80;;;;;;;;;;5031958;28;20469;-61
2023/06/30 00:25:04;;;;;;;4.68;1.83;;;;;;;;;;5031166;28;20033;-62
2023/06/30 00:27:29;;;;;;;2.90;1.80;;;;;;;;;;5031915;28;20155;-61
2023/06/30 00:29:55;;;;;;;4.07;1.90;;;;;;;;;;5031547;28;20065;-62
2023/06/30 00:32:20;;;;;;;3.55;1.80;;;;;;;;;;5031920;28;20053;-62
2023/06/30 00:34:45;;;;;;;5.13;2.10;;;;;;;;;;5032109;28;20112;-62
2023/06/30 00:37:11;;;;;;;2.83;1.90;;;;;;;;;;5030879;28;20037;-62
2023/06/30 00:39:36;;;;;;;3.95;1.95;;;;;;;;;;5031339;28;20470;-61
2023/06/30 00:42:02;;;;;;;4.57;2.30;;;;;;;;;;5031191;28;20030;-62
2023/06/30 00:44:27;;;;;;;7.03;2.72;;;;;;;;;;5031833;28;20479;-64
2023/06/30 00:46:54;;;;;;;4.93;2.78;;;;;;;;;;5031392;28;20029;-64
2023/06/30 00:49:19;;;;;;;7.72;2.88;;;;;;;;;;5030947;28;20033;-63
2023/06/30 00:51:45;;;;;;;5.40;3.08;;;;;;;;;;5037439;28;20455;-63
2023/06/30 00:54:10;;;;;;;8.32;3.70;;;;;;;;;;5031144;28;20091;-62
2023/06/30 00:56:36;;;;;;;5.32;3.53;;;;;;;;;;5030466;28;20382;-61
2023/06/30 00:59:01;;;;;;;6.78;3.88;;;;;;;;;;5030932;28;20037;-61
2023/06/30 01:01:32;;;;;;;10.45;4.32;;;;;;;;;;5031352;28;20099;-62
2023/06/30 01:04:06;;;;;;;7.18;4.10;;;;;;;;;;5031237;28;20492;-61
2023/06/30 01:06:42;;;;;;;11.63;4.65;;;;;;;;;;5031618;28;20032;-62
2023/06/30 01:09:15;;;;;;;8.02;4.22;;;;;;;;;;5030753;28;20029;-62
2023/06/30 01:11:42;;;;;;;8.85;4.68;;;;;;;;;;5031352;28;20039;-61
2023/06/30 01:14:10;;;;;;;7.32;4.90;;;;;;;;;;5030682;28;20470;-61
2023/06/30 01:16:36;;;;;;;8.07;5.40;;;;;;;;;;5031532;28;20090;-62
2023/06/30 01:19:07;;;;;;;9.75;5.63;;;;;;;;;;5030208;28;20025;-61
2023/06/30 01:21:33;;;;;;;10.10;5.45;;;;;;;;;;5030228;28;20076;-60
2023/06/30 01:24:04;;;;;;;9.40;6.03;;;;;;;;;;5029760;28;20091;-62
2023/06/30 01:26:34;;;;;;;14.20;6.05;;;;;;;;;;5031364;28;20378;-61
2023/06/30 01:29:03;;;;;;;12.57;6.70;;;;;;;;;;5031066;28;20069;-63
2023/06/30 01:31:31;;;;;;;14.00;6.60;;;;;;;;;;5031344;28;20029;-62
2023/06/30 01:33:57;;;;;;;14.90;6.80;;;;;;;;;;5031571;28;20043;-61
2023/06/30 01:36:22;;;;;;;16.65;7.15;;;;;;;;;;5030803;28;20117;-61
2023/06/30 01:38:47;;;;;;;14.05;7.47;;;;;;;;;;5031183;28;20061;-61
2023/06/30 01:41:13;;;;;;;17.02;7.32;;;;;;;;;;5030617;28;20037;-61
2023/06/30 01:43:39;;;;;;;16.75;7.82;;;;;;;;;;5030214;28;20041;-61
2023/06/30 01:46:05;;;;;;;19.30;8.18;;;;;;;;;;5029564;28;20124;-61
2023/06/30 01:48:31;;;;;;;14.52;8.05;;;;;;;;;;5031724;28;20100;-61
2023/06/30 01:50:57;;;;;;;17.98;9.00;;;;;;;;;;5034451;28;20044;-61
2023/06/30 01:53:24;;;;;;;14.43;9.57;;;;;;;;;;5033911;28;20026;-61
2023/06/30 01:55:54;;;;;;;19.08;10.45;;;;;;;;;;5024521;28;20058;-61
2023/06/30 01:58:19;;;;;;;17.63;10.10;;;;;;;;;;5014177;28;20431;-62
2023/06/30 02:00:45;;;;;;;19.58;10.65;;;;;;;;;;5015045;28;20474;-61
2023/06/30 02:03:10;;;;;;;22.80;11.68;;;;;;;;;;5014085;28;20045;-62
2023/06/30 02:05:35;;;;;;;22.52;10.88;;;;;;;;;;5014707;28;20029;-62
2023/06/30 02:08:01;;;;;;;19.55;10.38;;;;;;;;;;5014303;28;20462;-62
2023/06/30 02:10:26;;;;;;;19.80;10.18;;;;;;;;;;5014069;28;20072;-61
2023/06/30 02:12:51;;;;;;;25.33;10.10;;;;;;;;;;5014390;28;20026;-61
2023/06/30 02:15:17;;;;;;;17.48;10.77;;;;;;;;;;5013468;28;20493;-62
2023/06/30 02:17:42;;;;;;;19.00;10.32;;;;;;;;;;5014479;28;20029;-61
2023/06/30 02:20:09;;;;;;;18.25;9.88;;;;;;;;;;5013604;28;20065;-62
2023/06/30 02:22:35;;;;;;;17.55;10.60;;;;;;;;;;5014406;28;20026;-62
2023/06/30 02:25:00;;;;;;;20.75;11.52;;;;;;;;;;5014148;28;20057;-63
2023/06/30 02:27:27;;;;;;;22.35;11.55;;;;;;;;;;5013310;28;20113;-61
2023/06/30 02:29:52;;;;;;;18.08;11.07;;;;;;;;;;5014205;28;20025;-61
2023/06/30 02:32:18;;;;;;;23.02;10.32;;;;;;;;;;5013190;28;20044;-62
2023/06/30 02:34:43;;;;;;;19.95;11.18;;;;;;;;;;5013876;28;20025;-62
2023/06/30 02:37:08;;;;;;;21.73;11.73;;;;;;;;;;5012264;28;20088;-63
2023/06/30 02:39:34;;;;;;;20.40;11.07;;;;;;;;;;5021256;28;20493;-62
2023/06/30 02:41:59;;;;;;;22.40;11.00;;;;;;;;;;5014168;28;20060;-61
2023/06/30 02:44:25;;;;;;;19.83;10.60;;;;;;;;;;5013217;28;20025;-63
2023/06/30 02:46:50;;;;;;;20.48;10.52;;;;;;;;;;5013870;28;20026;-62
2023/06/30 02:49:15;;;;;;;19.60;10.65;;;;;;;;;;5013135;28;20066;-62
2023/06/30 02:51:41;;;;;;;19.50;11.45;;;;;;;;;;5013520;28;20051;-62
2023/06/30 02:54:06;;;;;;;18.40;11.07;;;;;;;;;;5012902;28;20037;-62
2023/06/30 02:56:32;;;;;;;20.00;10.90;;;;;;;;;;5013810;28;20064;-63
2023/06/30 02:58:57;;;;;;;21.00;11.13;;;;;;;;;;5013900;28;20037;-63
2023/06/30 03:01:22;;;;;;;25.80;11.40;;;;;;;;;;5011410;28;20042;-63
2023/06/30 03:03:48;;;;;;;18.17;10.30;;;;;;;;;;5012446;28;20026;-62
2023/06/30 03:06:13;;;;;;;18.25;10.60;;;;;;;;;;5011558;28;20072;-61
2023/06/30 03:08:39;;;;;;;16.25;9.13;;;;;;;;;;5012440;28;20032;-62
2023/06/30 03:11:05;;;;;;;23.05;9.90;;;;;;;;;;5013453;28;20022;-62
2023/06/30 03:13:30;;;;;;;18.92;9.50;;;;;;;;;;5013822;28;20467;-62
2023/06/30 03:15:56;;;;;;;17.40;9.93;;;;;;;;;;5013492;28;20077;-62
2023/06/30 03:18:21;;;;;;;16.40;9.00;;;;;;;;;;5012835;28;20440;-63
2023/06/30 03:20:47;;;;;;;14.20;9.05;;;;;;;;;;5013420;28;20398;-62
2023/06/30 03:23:13;;;;;;;18.83;8.50;;;;;;;;;;5012611;28;20033;-62
2023/06/30 03:25:39;;;;;;;16.40;7.60;;;;;;;;;;5013445;28;20120;-63
2023/06/30 03:28:04;;;;;;;14.77;7.53;;;;;;;;;;5013312;28;20148;-62
2023/06/30 03:30:30;;;;;;;15.60;6.72;;;;;;;;;;5012725;28;20057;-62
2023/06/30 03:32:55;;;;;;;15.38;6.75;;;;;;;;;;5012796;28;20021;-62
2023/06/30 03:35:21;;;;;;;17.55;7.00;;;;;;;;;;5012542;28;20032;-62
2023/06/30 03:37:46;;;;;;;15.93;7.10;;;;;;;;;;5013014;28;20033;-62
2023/06/30 03:40:12;;;;;;;14.98;6.45;;;;;;;;;;5012124;28;20109;-63
2023/06/30 03:42:38;;;;;;;12.38;6.30;;;;;;;;;;5012383;28;20116;-63
2023/06/30 03:45:04;;;;;;;13.38;6.55;;;;;;;;;;5012855;28;20109;-63
2023/06/30 03:47:29;;;;;;;13.43;6.68;;;;;;;;;;5010564;28;20095;-62
2023/06/30 03:49:55;;;;;;;12.18;6.47;;;;;;;;;;5012801;28;20076;-62
2023/06/30 03:52:20;;;;;;;16.52;6.35;;;;;;;;;;5011611;28;20032;-62
2023/06/30 03:54:46;;;;;;;11.57;6.22;;;;;;;;;;5012483;28;20037;-62
2023/06/30 03:57:11;;;;;;;11.75;6.63;;;;;;;;;;5011855;28;20040;-63
2023/06/30 03:59:36;;;;;;;13.85;6.55;;;;;;;;;;5012630;28;20126;-62
2023/06/30 04:02:02;;;;;;;20.25;6.63;;;;;;;;;;5012548;28;20482;-62
2023/06/30 04:04:27;;;;;;;12.70;6.45;;;;;;;;;;5011570;28;20099;-62
2023/06/30 04:06:53;;;;;;;14.30;6.30;;;;;;;;;;5012545;28;20152;-62
2023/06/30 04:09:18;;;;;;;12.68;6.05;;;;;;;;;;5011719;28;20040;-62
2023/06/30 04:11:44;;;;;;;11.10;6.40;;;;;;;;;;5012100;28;20378;-63
2023/06/30 04:14:09;;;;;;;9.82;5.85;;;;;;;;;;5011907;28;20030;-62
2023/06/30 04:16:35;;;;;;;9.40;5.85;;;;;;;;;;5012602;28;20060;-63
2023/06/30 04:19:00;;;;;;;14.73;6.03;;;;;;;;;;5012388;28;20033;-61
2023/06/30 04:21:26;;;;;;;13.70;5.95;;;;;;;;;;5011708;28;20030;-62
2023/06/30 04:23:51;;;;;;;13.43;6.00;;;;;;;;;;5012481;28;20524;-62
2023/06/30 04:26:17;;;;;;;14.65;6.15;;;;;;;;;;5012949;28;20037;-63
2023/06/30 04:28:43;;;;;;;17.10;5.78;;;;;;;;;;5015948;28;20036;-62
2023/06/30 04:31:09;;;;;;;15.30;6.32;;;;;;;;;;5012274;28;20029;-62
2023/06/30 04:33:34;;;;;;;15.40;6.15;;;;;;;;;;5011467;28;20089;-62
2023/06/30 04:36:00;;;;;;;12.82;5.95;;;;;;;;;;5012345;28;20363;-62
2023/06/30 04:38:25;;;;;;;14.00;5.97;;;;;;;;;;5011495;28;20038;-61
2023/06/30 04:40:50;;;;;;;13.93;5.32;;;;;;;;;;5012165;28;20060;-61
2023/06/30 04:43:16;;;;;;;13.98;5.82;;;;;;;;;;5011204;28;20156;-62
2023/06/30 04:45:42;;;;;;;12.30;5.38;;;;;;;;;;5012838;28;20121;-62
2023/06/30 04:48:08;;;;;;;11.60;5.63;;;;;;;;;;5012033;28;20037;-62
2023/06/30 04:50:34;;;;;;;12.20;5.40;;;;;;;;;;5011913;28;20045;-61
2023/06/30 04:52:59;;;;;;;10.38;5.35;;;;;;;;;;5012007;28;20030;-62
2023/06/30 04:55:25;;;;;;;10.93;5.55;;;;;;;;;;5011243;28;20030;-61
2023/06/30 04:57:53;;;;;;;11.40;5.35;;;;;;;;;;5010483;28;20125;-62
2023/06/30 05:00:19;;;;;;;15.02;5.20;;;;;;;;;;5010001;28;20034;-61
2023/06/30 05:02:44;;;;;;;11.50;5.60;;;;;;;;;;5011556;28;20026;-61
2023/06/30 05:05:10;;;;;;;10.20;5.13;;;;;;;;;;5012107;28;20033;-62
2023/06/30 05:07:35;;;;;;;9.35;5.22;;;;;;;;;;5010080;28;20430;-62
2023/06/30 05:10:00;;;;;;;12.15;5.03;;;;;;;;;;5012200;28;20030;-62
2023/06/30 05:12:26;;;;;;;9.85;4.80;;;;;;;;;;5010746;28;20103;-62
2023/06/30 05:14:52;;;;;;;10.73;4.80;;;;;;;;;;5012095;28;20112;-61
2023/06/30 05:17:17;;;;;;;13.20;4.70;;;;;;;;;;5009785;28;20116;-61
2023/06/30 05:19:42;;;;;;;13.68;4.38;;;;;;;;;;5011684;28;20548;-62
2023/06/30 05:22:08;;;;;;;9.98;4.10;;;;;;;;;;5011713;28;20057;-61
2023/06/30 05:24:33;;;;;;;10.55;4.30;;;;;;;;;;5012967;28;20030;-61
2023/06/30 05:26:59;;;;;;;10.82;3.92;;;;;;;;;;5015423;28;20061;-61
2023/06/30 05:29:28;;;;;;;9.82;4.30;;;;;;;;;;5014366;28;20034;-61
2023/06/30 05:31:53;;;;;;;12.57;4.10;;;;;;;;;;5015314;28;20037;-61
2023/06/30 05:34:18;;;;;;;10.65;3.63;;;;;;;;;;5014372;28;20026;-61
2023/06/30 05:36:44;;;;;;;11.63;3.90;;;;;;;;;;5015308;28;20526;-61
2023/06/30 05:39:11;;;;;;;9.65;4.03;;;;;;;;;;5015297;28;20076;-62
2023/06/30 05:41:36;;;;;;;8.73;3.53;;;;;;;;;;5013247;28;20029;-61
2023/06/30 05:44:01;;;;;;;9.73;3.95;;;;;;;;;;5014916;28;20052;-61
2023/06/30 05:46:27;;;;;;;9.05;3.63;;;;;;;;;;5014105;28;20113;-60
2023/06/30 05:48:52;;;;;;;9.63;3.92;;;;;;;;;;5015159;28;20030;-61
2023/06/30 05:51:18;;;;;;;9.65;3.88;;;;;;;;;;5014073;28;20034;-61
2023/06/30 05:53:43;;;;;;;9.85;3.80;;;;;;;;;;5014590;28;20034;-61
2023/06/30 05:56:09;;;;;;;7.90;3.75;;;;;;;;;;5015017;28;20057;-61
2023/06/30 05:58:37;;;;;;;9.93;3.80;;;;;;;;;;5014189;28;20039;-61
2023/06/30 06:01:03;;;;;;;11.77;3.38;;;;;;;;;;5015053;28;20076;-61
2023/06/30 06:03:30;;;;;;;11.52;3.78;;;;;;;;;;5013598;28;20038;-62
2023/06/30 06:05:56;;;;;;;12.85;3.70;;;;;;;;;;5014608;28;20034;-60
2023/06/30 06:08:22;;;;;;;12.02;3.70;;;;;;;;;;5012395;28;20057;-61
2023/06/30 06:10:48;;;;;;;9.40;3.30;;;;;;;;;;5014754;28;20517;-61
2023/06/30 06:13:33;;;;;;;13.10;3.75;;;;;;;;;;5015700;28;20030;-62
2023/06/30 06:15:59;;;;;;;10.10;3.30;;;;;;;;;;5015997;28;20025;-61
2023/06/30 06:18:25;;;;;;;6.90;3.50;;;;;;;;;;5013910;28;20028;-61
2023/06/30 06:20:50;;;;;;;8.20;3.50;;;;;;;;;;5014404;28;20437;-61
2023/06/30 06:23:16;;;;;;;12.32;3.80;;;;;;;;;;5014312;28;20026;-61
2023/06/30 06:25:41;;;;;;;8.63;3.60;;;;;;;;;;5014239;28;20382;-61
2023/06/30 06:28:06;;;;;;;10.90;3.80;;;;;;;;;;5014596;28;20033;-61
2023/06/30 06:30:32;;;;;;;7.25;3.97;;;;;;;;;;5013649;28;20061;-61
2023/06/30 06:32:57;;;;;;;9.93;4.00;;;;;;;;;;5014396;28;20088;-60
2023/06/30 06:35:22;;;;;;;11.52;3.85;;;;;;;;;;5013274;28;20030;-61
2023/06/30 06:37:48;;;;;;;12.15;3.83;;;;;;;;;;5014084;28;20084;-61
2023/06/30 06:40:13;;;;;;;12.50;4.03;;;;;;;;;;5014156;28;20044;-61
2023/06/30 06:42:39;;;;;;;13.88;3.80;;;;;;;;;;5013157;28;20033;-61
2023/06/30 06:45:05;;;;;;;15.73;4.00;;;;;;;;;;5012734;28;20117;-61
2023/06/30 06:48:08;;;;;;;11.43;3.80;;;;;;;;;;5011792;28;20045;-61
2023/06/30 06:50:33;;;;;;;11.05;3.60;;;;;;;;;;5013299;28;20442;-61
2023/06/30 06:52:59;;;;;;;9.13;3.58;;;;;;;;;;5013883;28;20030;-61
2023/06/30 06:55:24;;;;;;;10.40;3.20;;;;;;;;;;5012968;28;20044;-62
2023/06/30 06:57:50;;;;;;;9.82;3.22;;;;;;;;;;5013716;28;20036;-61
2023/06/30 07:00:16;;;;;;;10.63;3.30;;;;;;;;;;5013692;28;20037;-61
2023/06/30 07:02:42;;;;;;;13.45;3.78;;;;;;;;;;5011750;28;20354;-60
2023/06/30 07:05:08;;;;;;;10.10;4.22;;;;;;;;;;5013434;28;20033;-60
2023/06/30 07:07:33;;;;;;;10.95;4.00;;;;;;;;;;5012325;28;20026;-61
2023/06/30 07:09:58;;;;;;;10.38;4.50;;;;;;;;;;5013489;28;20034;-61
2023/06/30 07:12:24;;;;;;;11.13;4.07;;;;;;;;;;5012676;28;20108;-61
2023/06/30 07:14:49;;;;;;;11.13;3.90;;;;;;;;;;5013255;28;20029;-61
2023/06/30 07:17:14;;;;;;;8.98;3.97;;;;;;;;;;5013524;28;20533;-61
2023/06/30 07:19:41;;;;;;;6.97;3.20;;;;;;;;;;5012357;28;20121;-61
2023/06/30 07:22:06;;;;;;;7.25;2.67;;;;;;;;;;5013317;28;20104;-61
2023/06/30 07:24:32;;;;;;;4.07;2.17;;;;;;;;;;5012366;28;20113;-61
2023/06/30 07:26:58;;;;;;;9.57;2.70;;;;;;;;;;5013259;28;20042;-61
2023/06/30 07:29:24;;;;;;;8.27;2.67;;;;;;;;;;5012364;28;20072;-61
2023/06/30 07:31:49;;;;;;;7.68;2.40;;;;;;;;;;5013138;28;20439;-61
2023/06/30 07:34:18;;;;;;;7.43;2.83;;;;;;;;;;5013095;28;20040;-61
2023/06/30 07:36:44;;;;;;;8.30;3.35;;;;;;;;;;5012356;28;20040;-61
2023/06/30 07:39:10;;;;;;;8.57;2.75;;;;;;;;;;5011878;28;20117;-61
2023/06/30 07:41:35;;;;;;;9.40;3.00;;;;;;;;;;5012190;28;20030;-62
2023/06/30 07:44:01;;;;;;;6.40;2.42;;;;;;;;;;5012832;28;20363;-61
2023/06/30 07:46:26;;;;;;;7.47;2.85;;;;;;;;;;5011456;28;20026;-62
2023/06/30 07:48:52;;;;;;;6.57;2.50;;;;;;;;;;5012926;28;20033;-61
2023/06/30 07:51:17;;;;;;;7.70;2.20;;;;;;;;;;5012779;28;20033;-61
2023/06/30 07:53:44;;;;;;;6.15;1.85;;;;;;;;;;5011920;28;20184;-61
2023/06/30 07:56:10;;;;;;;7.03;2.20;;;;;;;;;;5012811;28;20034;-61
2023/06/30 07:58:35;;;;;;;5.47;2.20;;;;;;;;;;5011871;28;20473;-62
2023/06/30 08:01:01;;;;;;;8.77;2.28;;;;;;;;;;5014187;28;20456;-62
2023/06/30 08:03:26;;;;;;;4.35;1.90;;;;;;;;;;5018091;28;20033;-61
2023/06/30 08:05:51;;;;;;;7.53;2.13;;;;;;;;;;5011599;28;20060;-61
2023/06/30 08:08:17;;;;;;;7.82;2.45;;;;;;;;;;5012463;28;20463;-61
2023/06/30 08:10:42;;;;;;;9.07;2.50;;;;;;;;;;5011921;28;20538;-62
2023/06/30 08:13:08;;;;;;;5.72;1.95;;;;;;;;;;5012744;28;20065;-61
2023/06/30 08:15:33;;;;;;;6.90;2.28;;;;;;;;;;5011769;28;20038;-62
2023/06/30 08:17:58;;;;;;;6.15;2.17;;;;;;;;;;5011091;28;20109;-61
2023/06/30 08:20:24;;;;;;;7.10;2.17;;;;;;;;;;5011804;28;20050;-61
2023/06/30 08:22:50;;;;;;;8.30;2.10;;;;;;;;;;5012743;28;20041;-61
2023/06/30 08:25:15;;;;;;;6.38;1.90;;;;;;;;;;5012282;28;20030;-61
2023/06/30 08:27:41;;;;;;;3.58;1.95;;;;;;;;;;5010335;28;20030;-61
2023/06/30 08:30:07;;;;;;;8.13;2.45;;;;;;;;;;5012422;28;20105;-61
2023/06/30 08:32:32;;;;;;;5.97;1.90;;;;;;;;;;5011434;28;20104;-61
2023/06/30 08:34:58;;;;;;;4.28;2.25;;;;;;;;;;5012389;28;20093;-60
2023/06/30 08:37:23;;;;;;;5.75;2.20;;;;;;;;;;5012117;28;20041;-61
2023/06/30 08:39:48;;;;;;;5.78;2.40;;;;;;;;;;5011876;28;20022;-61
2023/06/30 08:42:16;;;;;;;7.65;2.50;;;;;;;;;;5011855;28;20026;-62
2023/06/30 08:44:46;;;;;;;6.65;2.47;;;;;;;;;;5011200;28;20030;-62
2023/06/30 08:47:14;;;;;;;3.90;2.00;;;;;;;;;;5012029;28;20037;-62
2023/06/30 08:49:40;;;;;;;6.35;2.20;;;;;;;;;;5010855;28;20099;-61
2023/06/30 08:52:06;;;;;;;5.40;2.03;;;;;;;;;;5011059;28;20117;-62
2023/06/30 08:54:32;;;;;;;6.53;2.15;;;;;;;;;;5011080;28;20449;-61
2023/06/30 08:57:01;;;;;;;5.13;1.90;;;;;;;;;;5010892;28;20073;-62
2023/06/30 08:59:27;;;;;;;6.38;1.85;;;;;;;;;;5013645;28;20026;-63
2023/06/30 09:01:54;;;;;;;4.13;1.88;;;;;;;;;;4998113;28;20390;-62
2023/06/30 09:04:22;;;;;;;4.45;1.88;;;;;;;;;;5015705;28;20363;-61
2023/06/30 09:06:48;;;;;;;8.68;2.03;;;;;;;;;;5015067;28;20462;-61
2023/06/30 09:09:44;;;;;;;4.78;1.80;;;;;;;;;;5016173;28;20104;-61
2023/06/30 09:12:10;;;;;;;5.13;2.00;;;;;;;;;;5016171;28;20116;-61
2023/06/30 09:14:40;;;;;;;5.80;2.00;;;;;;;;;;5015264;28;20033;-62
2023/06/30 09:17:06;;;;;;;6.60;2.40;;;;;;;;;;5015816;28;20099;-61
2023/06/30 09:19:32;;;;;;;4.15;2.03;;;;;;;;;;5013621;28;20486;-61
2023/06/30 09:21:58;;;;;;;3.78;1.92;;;;;;;;;;5015937;28;20053;-61
2023/06/30 09:24:23;;;;;;;3.85;1.80;;;;;;;;;;5015593;28;20038;-61
2023/06/30 09:26:52;;;;;;;4.75;2.00;;;;;;;;;;5015082;28;20080;-60
2023/06/30 09:29:22;;;;;;;4.03;1.73;;;;;;;;;;5015856;28;20065;-61
2023/06/30 09:31:51;;;;;;;4.00;1.88;;;;;;;;;;5015272;28;20061;-62
2023/06/30 09:34:19;;;;;;;9.10;2.00;;;;;;;;;;5014587;28;20393;-61
2023/06/30 09:36:52;;;;;;;3.63;1.75;;;;;;;;;;5014906;28;20088;-62
2023/06/30 09:39:18;;;;;;;4.72;1.60;;;;;;;;;;5015283;28;20026;-61
2023/06/30 09:41:46;;;;;;;4.43;1.58;;;;;;;;;;5014146;28;20045;-61
2023/06/30 09:44:12;;;;;;;4.07;1.80;;;;;;;;;;5015594;28;20359;-61
2023/06/30 09:46:51;;;;;;;4.00;1.70;;;;;;;;;;5014782;28;20033;-61
2023/06/30 09:49:28;;;;;;;7.85;2.08;;;;;;;;;;5015578;28;20085;-61
2023/06/30 09:51:56;;;;;;;4.63;1.60;;;;;;;;;;5023104;28;20026;-61
2023/06/30 09:54:22;;;;;;;4.78;1.75;;;;;;;;;;5017665;28;20029;-60
2023/06/30 09:56:59;;;;;;;4.05;1.85;;;;;;;;;;5014599;28;20042;-61
2023/06/30 09:59:25;;;;;;;3.65;1.90;;;;;;;;;;5013845;28;20358;-60
2023/06/30 10:01:55;;;;;;;4.57;1.70;;;;;;;;;;5013586;28;20140;-61
2023/06/30 10:04:20;;;;;;;4.65;1.70;;;;;;;;;;5014757;28;20065;-61
2023/06/30 10:06:47;;;;;;;3.60;1.77;;;;;;;;;;5013819;28;20057;-61
2023/06/30 10:09:13;;;;;;;4.53;1.90;;;;;;;;;;5014219;28;20036;-61
2023/06/30 10:11:40;;;;;;;3.78;1.80;;;;;;;;;;5013794;28;20052;-60
2023/06/30 10:14:06;;;;;;;3.22;1.60;;;;;;;;;;5014635;28;20034;-60
2023/06/30 10:16:32;;;;;;;3.60;1.65;;;;;;;;;;5013778;28;20036;-60
2023/06/30 10:19:02;;;;;;;3.10;1.63;;;;;;;;;;5014707;28;20033;-61
2023/06/30 10:21:27;;;;;;;3.72;1.40;;;;;;;;;;5014474;28;20038;-60
2023/06/30 10:23:54;;;;;;;2.83;1.50;;;;;;;;;;5013257;28;20113;-60
2023/06/30 10:26:20;;;;;;;5.43;1.80;;;;;;;;;;5013992;28;20464;-60
2023/06/30 10:28:47;;;;;;;2.83;1.70;;;;;;;;;;5013484;28;20096;-60
2023/06/30 10:31:12;;;;;;;4.47;1.58;;;;;;;;;;5014260;28;20033;-61
2023/06/30 10:33:38;;;;;;;3.83;1.70;;;;;;;;;;5013103;28;20037;-61
2023/06/30 10:36:04;;;;;;;4.95;1.80;;;;;;;;;;5014215;28;20029;-61
2023/06/30 10:38:30;;;;;;;4.00;1.42;;;;;;;;;;5014297;28;20036;-60
2023/06/30 10:41:17;;;;;;;2.65;1.40;;;;;;;;;;5013514;28;20030;-61
2023/06/30 10:44:03;;;;;;;2.78;1.58;;;;;;;;;;5013259;28;20026;-62
2023/06/30 10:46:57;;;;;;;4.30;1.77;;;;;;;;;;5013899;28;20034;-61
2023/06/30 10:49:30;;;;;;;3.47;1.50;;;;;;;;;;5011901;28;20049;-61
2023/06/30 10:51:58;;;;;;;4.25;1.52;;;;;;;;;;5013093;28;20489;-62
2023/06/30 10:54:37;;;;;;;3.78;1.60;;;;;;;;;;5012474;28;20042;-61
2023/06/30 10:57:09;;;;;;;3.90;1.58;;;;;;;;;;5013426;28;20030;-61
2023/06/30 10:59:40;;;;;;;1.90;1.48;;;;;;;;;;5013423;28;20038;-62
2023/06/30 11:02:18;;;;;;;4.80;1.70;;;;;;;;;;5013990;28;20045;-61
2023/06/30 11:04:47;;;;;;;2.58;1.30;;;;;;;;;;5013130;28;20069;-62
2023/06/30 11:07:27;;;;;;;1.92;1.40;;;;;;;;;;5013534;28;20041;-62
2023/06/30 11:09:53;;;;;;;2.70;1.48;;;;;;;;;;5011444;28;20525;-61
2023/06/30 11:12:20;;;;;;;4.10;1.35;;;;;;;;;;5013507;28;20073;-61
2023/06/30 11:15:03;;;;;;;4.32;1.52;;;;;;;;;;5012744;28;20066;-61
2023/06/30 11:17:50;;;;;;;2.88;1.40;;;;;;;;;;5012175;28;20040;-61
2023/06/30 11:20:16;;;;;;;5.60;1.60;;;;;;;;;;5013474;28;20046;-61
2023/06/30 11:22:41;;;;;;;4.45;1.70;;;;;;;;;;5011435;28;20533;-61
2023/06/30 11:25:11;;;;;;;3.60;1.65;;;;;;;;;;5013202;28;20030;-62
2023/06/30 11:27:40;;;;;;;2.65;1.50;;;;;;;;;;5012830;28;20206;-61
2023/06/30 11:30:09;;;;;;;2.92;1.50;;;;;;;;;;5013698;28;20049;-61
2023/06/30 11:32:36;;;;;;;2.63;1.42;;;;;;;;;;5013105;28;20088;-61
2023/06/30 11:35:07;;;;;;;4.45;1.88;;;;;;;;;;5013198;28;20025;-61
2023/06/30 11:37:36;;;;;;;4.47;2.25;;;;;;;;;;5013422;28;20053;-61
2023/06/30 11:40:02;;;;;;;5.20;1.80;;;;;;;;;;5012885;28;20034;-61
2023/06/30 11:42:39;;;;;;;3.20;1.38;;;;;;;;;;5072774;28;20384;-61
2023/06/30 11:45:06;;;;;;;4.20;1.60;;;;;;;;;;5069486;28;20037;-61
2023/06/30 11:47:33;;;;;;;5.05;1.50;;;;;;;;;;5069159;28;20028;-60
2023/06/30 11:50:04;;;;;;;3.67;1.52;;;;;;;;;;5068373;28;20043;-61
2023/06/30 11:52:32;;;;;;;3.33;1.48;;;;;;;;;;5069303;28;20043;-60
2023/06/30 11:54:58;;;;;;;4.85;1.50;;;;;;;;;;5068321;28;20107;-61
2023/06/30 11:57:24;;;;;;;6.13;1.70;;;;;;;;;;5068869;28;20115;-60
2023/06/30 11:59:49;;;;;;;3.65;1.60;;;;;;;;;;5068087;28;20129;-61
2023/06/30 12:02:15;;;;;;;5.82;3.17;;;;;;;;;;5068947;28;20079;-60
2023/06/30 12:04:46;;;;;;;3.78;2.15;;;;;;;;;;5067907;28;20033;-60
2023/06/30 12:07:14;;;;;;;4.70;1.83;;;;;;;;;;5068786;28;20112;-60
2023/06/30 12:09:40;;;;;;;2.40;1.48;;;;;;;;;;5066530;28;20485;-61
2023/06/30 12:12:07;;;;;;;4.93;1.60;;;;;;;;;;5068480;28;20222;-61
2023/06/30 12:14:40;;;;;;;4.22;1.80;;;;;;;;;;5068638;28;20108;-61
2023/06/30 12:17:07;;;;;;;3.22;1.77;;;;;;;;;;5068257;28;20029;-61
2023/06/30 12:19:32;;;;;;;3.58;2.10;;;;;;;;;;5068385;28;20374;-60
2023/06/30 12:22:00;;;;;;;3.63;1.52;;;;;;;;;;5067426;28;20020;-61
2023/06/30 12:24:31;;;;;;;2.95;1.60;;;;;;;;;;5068142;28;20373;-61
2023/06/30 12:26:57;;;;;;;3.63;1.88;;;;;;;;;;5067486;28;20097;-61
2023/06/30 12:29:23;;;;;;;3.20;1.58;;;;;;;;;;5068006;28;20119;-62
2023/06/30 12:31:48;;;;;;;3.38;1.60;;;;;;;;;;5066233;28;20040;-61
2023/06/30 12:34:32;;;;;;;3.28;1.40;;;;;;;;;;5068422;28;20457;-61
2023/06/30 12:36:58;;;;;;;3.28;1.70;;;;;;;;;;5067352;28;20085;-61
2023/06/30 12:39:24;;;;;;;6.15;1.50;;;;;;;;;;5068188;28;20037;-61
2023/06/30 12:41:49;;;;;;;4.07;1.58;;;;;;;;;;5065859;28;20090;-61
2023/06/30 12:44:15;;;;;;;2.63;1.45;;;;;;;;;;5067924;28;20040;-61
2023/06/30 12:46:41;;;;;;;3.80;1.58;;;;;;;;;;5067053;28;20029;-61
2023/06/30 12:49:06;;;;;;;4.50;1.77;;;;;;;;;;5067496;28;20037;-61
2023/06/30 12:51:31;;;;;;;3.08;1.60;;;;;;;;;;5066562;28;20029;-62
2023/06/30 12:53:58;;;;;;;5.10;1.83;;;;;;;;;;5053880;28;20116;-61
2023/06/30 12:56:24;;;;;;;4.00;2.13;;;;;;;;;;5054508;28;20029;-62
2023/06/30 12:58:49;;;;;;;3.85;1.77;;;;;;;;;;5054117;28;20075;-60
2023/06/30 13:01:15;;;;;;;3.67;1.52;;;;;;;;;;5054503;28;20033;-61
2023/06/30 13:03:40;;;;;;;4.00;1.60;;;;;;;;;;5053975;28;20055;-62
2023/06/30 13:06:05;;;;;;;7.38;1.92;;;;;;;;;;5054437;28;20029;-61
2023/06/30 13:08:31;;;;;;;7.03;2.20;;;;;;;;;;5054560;28;20029;-61
2023/06/30 13:10:56;;;;;;;3.78;1.90;;;;;;;;;;5053678;28;20435;-61
2023/06/30 13:13:22;;;;;;;5.15;1.75;;;;;;;;;;5054838;28;20029;-61
2023/06/30 13:15:47;;;;;;;4.88;1.77;;;;;;;;;;5053759;28;20531;-61
2023/06/30 13:18:12;;;;;;;5.20;2.20;;;;;;;;;;5054088;28;20025;-61
2023/06/30 13:20:38;;;;;;;3.00;1.60;;;;;;;;;;5054011;28;20025;-61
2023/06/30 13:23:03;;;;;;;4.07;1.60;;;;;;;;;;5053102;28;20122;-61
2023/06/30 13:25:29;;;;;;;2.58;1.52;;;;;;;;;;5054114;28;20040;-61
2023/06/30 13:27:55;;;;;;;2.63;1.65;;;;;;;;;;5051524;28;20072;-62
2023/06/30 13:30:20;;;;;;;3.30;1.80;;;;;;;;;;5056813;28;20028;-62
2023/06/30 13:32:46;;;;;;;6.32;1.70;;;;;;;;;;5054145;28;20029;-62
2023/06/30 13:35:11;;;;;;;5.13;2.00;;;;;;;;;;5052736;28;20056;-61
2023/06/30 13:37:37;;;;;;;5.38;1.90;;;;;;;;;;5053878;28;20068;-62
2023/06/30 13:40:03;;;;;;;4.03;1.70;;;;;;;;;;5052847;28;20033;-62
2023/06/30 13:42:28;;;;;;;6.05;1.83;;;;;;;;;;5053236;28;20045;-62
2023/06/30 13:44:54;;;;;;;3.20;1.88;;;;;;;;;;5053026;28;20028;-62
2023/06/30 13:47:20;;;;;;;5.43;2.00;;;;;;;;;;5053503;28;20081;-62
2023/06/30 13:49:45;;;;;;;5.35;2.17;;;;;;;;;;5052996;28;20025;-62
2023/06/30 13:52:10;;;;;;;4.65;2.22;;;;;;;;;;5053578;28;20470;-62
2023/06/30 13:54:38;;;;;;;5.72;1.92;;;;;;;;;;5053570;28;20056;-62
2023/06/30 13:57:03;;;;;;;6.35;1.90;;;;;;;;;;5052446;28;20222;-61
2023/06/30 13:59:29;;;;;;;5.55;1.77;;;;;;;;;;5053487;28;20110;-62
2023/06/30 14:01:54;;;;;;;5.10;1.90;;;;;;;;;;5052557;28;20025;-63
2023/06/30 14:04:19;;;;;;;5.20;1.83;;;;;;;;;;5051081;28;20025;-62
2023/06/30 14:06:45;;;;;;;4.65;1.80;;;;;;;;;;5052840;28;20519;-62
2023/06/30 14:09:11;;;;;;;3.78;1.50;;;;;;;;;;5053414;28;20036;-63
2023/06/30 14:11:37;;;;;;;4.40;2.15;;;;;;;;;;5052334;28;20124;-63
2023/06/30 14:14:03;;;;;;;3.90;1.80;;;;;;;;;;5052614;28;20543;-62
2023/06/30 14:16:30;;;;;;;3.53;1.70;;;;;;;;;;5053164;28;20111;-62
2023/06/30 14:18:55;;;;;;;7.78;3.20;;;;;;;;;;5052552;28;20424;-62
2023/06/30 14:21:21;;;;;;;5.30;2.10;;;;;;;;;;5052938;28;20465;-62
2023/06/30 14:23:46;;;;;;;5.82;2.30;;;;;;;;;;5052389;28;20470;-62
2023/06/30 14:26:11;;;;;;;5.10;1.70;;;;;;;;;;5053075;28;20025;-62
2023/06/30 14:28:37;;;;;;;5.65;1.75;;;;;;;;;;5052833;28;20033;-62
2023/06/30 14:31:02;;;;;;;3.33;1.63;;;;;;;;;;5051805;28;20413;-62
2023/06/30 14:33:28;;;;;;;4.35;1.80;;;;;;;;;;5052760;28;20029;-62
2023/06/30 14:35:53;;;;;;;5.13;1.90;;;;;;;;;;5051942;28;20111;-62